sensor_id;sensor_type;location;lat;lon;timestamp;P1;durP1;ratioP1;P2;durP2;ratioP2
78887;SDS011;68276;49.326;8.690;2023-12-29T00:00:40;9.17;;;2.87;;
78887;SDS011;68276;49.326;8.690;2023-12-29T00:03:05;8.27;;;2.70;;
78887;SDS011;68276;49.326;8.690;2023-12-29T00:05:30;6.07;;;2.50;;
78887;SDS011;68276;49.326;8.690;2023-12-29T00:07:55;7.37;;;2.70;;
78887;SDS011;68276;49.326;8.690;2023-12-29T00:10:21;8.37;;;2.60;;
78887;SDS011;68276;49.326;8.690;2023-12-29T00:12:46;7.63;;;2.93;;
78887;SDS011;68276;49.326;8.690;2023-12-29T00:15:11;8.07;;;2.70;;
78887;SDS011;68276;49.326;8.690;2023-12-29T00:17:37;8.10;;;2.67;;
78887;SDS011;68276;49.326;8.690;2023-12-29T00:20:05;11.52;;;3.03;;
78887;SDS011;68276;49.326;8.690;2023-12-29T00:22:32;8.00;;;2.50;;
78887;SDS011;68276;49.326;8.690;2023-12-29T00:24:57;7.87;;;2.97;;
78887;SDS011;68276;49.326;8.690;2023-12-29T00:27:23;9.27;;;2.80;;
78887;SDS011;68276;49.326;8.690;2023-12-29T00:29:48;9.77;;;2.80;;
78887;SDS011;68276;49.326;8.690;2023-12-29T00:32:13;7.70;;;2.33;;
78887;SDS011;68276;49.326;8.690;2023-12-29T00:34:38;7.60;;;2.30;;
78887;SDS011;68276;49.326;8.690;2023-12-29T00:37:04;8.60;;;2.90;;
78887;SDS011;68276;49.326;8.690;2023-12-29T00:39:31;9.13;;;2.88;;
78887;SDS011;68276;49.326;8.690;2023-12-29T00:42:03;7.57;;;2.65;;
78887;SDS011;68276;49.326;8.690;2023-12-29T00:44:28;8.90;;;2.50;;
78887;SDS011;68276;49.326;8.690;2023-12-29T00:46:54;8.77;;;2.63;;
78887;SDS011;68276;49.326;8.690;2023-12-29T00:49:19;9.73;;;2.60;;
78887;SDS011;68276;49.326;8.690;2023-12-29T00:51:44;6.20;;;2.00;;
78887;SDS011;68276;49.326;8.690;2023-12-29T00:54:09;8.53;;;2.63;;
78887;SDS011;68276;49.326;8.690;2023-12-29T00:56:35;7.93;;;2.70;;
78887;SDS011;68276;49.326;8.690;2023-12-29T00:59:00;7.97;;;2.70;;
78887;SDS011;68276;49.326;8.690;2023-12-29T01:01:25;9.07;;;2.70;;
78887;SDS011;68276;49.326;8.690;2023-12-29T01:03:50;6.97;;;2.37;;
78887;SDS011;68276;49.326;8.690;2023-12-29T01:06:19;10.20;;;2.42;;
78887;SDS011;68276;49.326;8.690;2023-12-29T01:08:45;7.85;;;2.70;;
78887;SDS011;68276;49.326;8.690;2023-12-29T01:11:10;8.17;;;2.87;;
78887;SDS011;68276;49.326;8.690;2023-12-29T01:13:35;7.40;;;2.70;;
78887;SDS011;68276;49.326;8.690;2023-12-29T01:16:00;8.07;;;2.40;;
78887;SDS011;68276;49.326;8.690;2023-12-29T01:18:26;7.90;;;2.57;;
78887;SDS011;68276;49.326;8.690;2023-12-29T01:20:51;7.87;;;2.80;;
78887;SDS011;68276;49.326;8.690;2023-12-29T01:23:16;8.20;;;2.43;;
78887;SDS011;68276;49.326;8.690;2023-12-29T01:28:08;9.43;;;3.00;;
78887;SDS011;68276;49.326;8.690;2023-12-29T01:30:33;8.73;;;2.90;;
78887;SDS011;68276;49.326;8.690;2023-12-29T01:32:58;7.40;;;2.40;;
78887;SDS011;68276;49.326;8.690;2023-12-29T01:35:24;6.77;;;2.30;;
78887;SDS011;68276;49.326;8.690;2023-12-29T01:37:49;7.50;;;2.60;;
78887;SDS011;68276;49.326;8.690;2023-12-29T01:40:15;7.33;;;2.47;;
78887;SDS011;68276;49.326;8.690;2023-12-29T01:42:41;7.43;;;2.67;;
78887;SDS011;68276;49.326;8.690;2023-12-29T01:45:06;8.77;;;3.17;;
78887;SDS011;68276;49.326;8.690;2023-12-29T01:47:38;9.65;;;2.88;;
78887;SDS011;68276;49.326;8.690;2023-12-29T01:50:03;7.97;;;2.77;;
78887;SDS011;68276;49.326;8.690;2023-12-29T01:52:28;8.40;;;2.70;;
78887;SDS011;68276;49.326;8.690;2023-12-29T01:54:54;7.00;;;2.43;;
78887;SDS011;68276;49.326;8.690;2023-12-29T01:57:19;7.47;;;2.75;;
78887;SDS011;68276;49.326;8.690;2023-12-29T01:59:45;9.75;;;3.03;;
78887;SDS011;68276;49.326;8.690;2023-12-29T02:02:12;8.70;;;2.63;;
78887;SDS011;68276;49.326;8.690;2023-12-29T02:04:37;7.68;;;2.70;;
78887;SDS011;68276;49.326;8.690;2023-12-29T02:07:03;7.00;;;2.58;;
78887;SDS011;68276;49.326;8.690;2023-12-29T02:09:29;10.20;;;2.72;;
78887;SDS011;68276;49.326;8.690;2023-12-29T02:11:54;8.02;;;2.75;;
78887;SDS011;68276;49.326;8.690;2023-12-29T02:14:20;7.70;;;2.83;;
78887;SDS011;68276;49.326;8.690;2023-12-29T02:16:55;7.95;;;2.83;;
78887;SDS011;68276;49.326;8.690;2023-12-29T02:22:09;7.80;;;2.55;;
78887;SDS011;68276;49.326;8.690;2023-12-29T02:24:35;7.57;;;2.45;;
78887;SDS011;68276;49.326;8.690;2023-12-29T02:27:18;9.85;;;3.00;;
78887;SDS011;68276;49.326;8.690;2023-12-29T02:29:44;9.57;;;2.83;;
78887;SDS011;68276;49.326;8.690;2023-12-29T02:32:11;7.60;;;2.47;;
78887;SDS011;68276;49.326;8.690;2023-12-29T02:34:37;7.40;;;2.35;;
78887;SDS011;68276;49.326;8.690;2023-12-29T02:37:03;8.38;;;2.83;;
78887;SDS011;68276;49.326;8.690;2023-12-29T02:39:29;8.48;;;2.30;;
78887;SDS011;68276;49.326;8.690;2023-12-29T02:41:54;7.27;;;2.37;;
78887;SDS011;68276;49.326;8.690;2023-12-29T02:44:19;7.77;;;2.47;;
78887;SDS011;68276;49.326;8.690;2023-12-29T02:46:45;8.27;;;2.60;;
78887;SDS011;68276;49.326;8.690;2023-12-29T02:49:10;7.87;;;3.07;;
78887;SDS011;68276;49.326;8.690;2023-12-29T02:51:38;7.35;;;2.63;;
78887;SDS011;68276;49.326;8.690;2023-12-29T02:54:03;7.78;;;2.80;;
78887;SDS011;68276;49.326;8.690;2023-12-29T02:56:30;7.50;;;2.70;;
78887;SDS011;68276;49.326;8.690;2023-12-29T02:58:56;9.07;;;3.25;;
78887;SDS011;68276;49.326;8.690;2023-12-29T03:01:21;9.67;;;3.33;;
78887;SDS011;68276;49.326;8.690;2023-12-29T03:03:46;8.10;;;2.70;;
78887;SDS011;68276;49.326;8.690;2023-12-29T03:06:11;7.93;;;3.00;;
78887;SDS011;68276;49.326;8.690;2023-12-29T03:08:37;10.93;;;3.23;;
78887;SDS011;68276;49.326;8.690;2023-12-29T03:11:02;8.00;;;3.00;;
78887;SDS011;68276;49.326;8.690;2023-12-29T03:13:27;7.83;;;2.77;;
78887;SDS011;68276;49.326;8.690;2023-12-29T03:15:53;8.53;;;3.10;;
78887;SDS011;68276;49.326;8.690;2023-12-29T03:18:18;9.23;;;3.23;;
78887;SDS011;68276;49.326;8.690;2023-12-29T03:20:43;8.53;;;2.87;;
78887;SDS011;68276;49.326;8.690;2023-12-29T03:23:08;8.17;;;2.83;;
78887;SDS011;68276;49.326;8.690;2023-12-29T03:25:34;10.67;;;3.20;;
78887;SDS011;68276;49.326;8.690;2023-12-29T03:27:59;7.67;;;3.03;;
78887;SDS011;68276;49.326;8.690;2023-12-29T03:30:25;8.23;;;3.00;;
78887;SDS011;68276;49.326;8.690;2023-12-29T03:32:50;9.17;;;2.97;;
78887;SDS011;68276;49.326;8.690;2023-12-29T03:35:16;8.83;;;3.00;;
78887;SDS011;68276;49.326;8.690;2023-12-29T03:37:41;8.50;;;2.90;;
78887;SDS011;68276;49.326;8.690;2023-12-29T03:40:07;8.37;;;2.83;;
78887;SDS011;68276;49.326;8.690;2023-12-29T03:42:32;8.23;;;2.95;;
78887;SDS011;68276;49.326;8.690;2023-12-29T03:44:57;7.83;;;2.50;;
78887;SDS011;68276;49.326;8.690;2023-12-29T03:47:23;9.00;;;2.70;;
78887;SDS011;68276;49.326;8.690;2023-12-29T03:49:48;8.02;;;2.90;;
78887;SDS011;68276;49.326;8.690;2023-12-29T03:52:13;9.77;;;3.37;;
78887;SDS011;68276;49.326;8.690;2023-12-29T03:54:39;8.97;;;3.10;;
78887;SDS011;68276;49.326;8.690;2023-12-29T03:57:07;8.93;;;2.93;;
78887;SDS011;68276;49.326;8.690;2023-12-29T03:59:35;6.80;;;2.33;;
78887;SDS011;68276;49.326;8.690;2023-12-29T04:02:00;8.95;;;2.75;;
78887;SDS011;68276;49.326;8.690;2023-12-29T04:04:26;7.65;;;2.58;;
78887;SDS011;68276;49.326;8.690;2023-12-29T04:06:51;6.73;;;2.40;;
78887;SDS011;68276;49.326;8.690;2023-12-29T04:09:17;9.70;;;2.77;;
78887;SDS011;68276;49.326;8.690;2023-12-29T04:11:42;7.72;;;2.83;;
78887;SDS011;68276;49.326;8.690;2023-12-29T04:14:07;9.60;;;2.60;;
78887;SDS011;68276;49.326;8.690;2023-12-29T04:16:33;9.10;;;2.70;;
78887;SDS011;68276;49.326;8.690;2023-12-29T04:18:59;8.20;;;2.50;;
78887;SDS011;68276;49.326;8.690;2023-12-29T04:21:24;8.70;;;2.70;;
78887;SDS011;68276;49.326;8.690;2023-12-29T04:23:50;8.47;;;2.50;;
78887;SDS011;68276;49.326;8.690;2023-12-29T04:28:42;6.35;;;2.30;;
78887;SDS011;68276;49.326;8.690;2023-12-29T04:31:07;8.88;;;2.22;;
78887;SDS011;68276;49.326;8.690;2023-12-29T04:33:32;7.30;;;2.30;;
78887;SDS011;68276;49.326;8.690;2023-12-29T04:35:57;7.17;;;2.30;;
78887;SDS011;68276;49.326;8.690;2023-12-29T04:38:23;7.73;;;2.70;;
78887;SDS011;68276;49.326;8.690;2023-12-29T04:40:48;7.73;;;2.30;;
78887;SDS011;68276;49.326;8.690;2023-12-29T04:43:13;7.20;;;2.20;;
78887;SDS011;68276;49.326;8.690;2023-12-29T04:45:39;8.48;;;2.55;;
78887;SDS011;68276;49.326;8.690;2023-12-29T04:48:04;6.57;;;2.23;;
78887;SDS011;68276;49.326;8.690;2023-12-29T04:50:29;8.47;;;2.63;;
78887;SDS011;68276;49.326;8.690;2023-12-29T04:52:54;7.63;;;2.50;;
78887;SDS011;68276;49.326;8.690;2023-12-29T04:55:20;7.13;;;2.42;;
78887;SDS011;68276;49.326;8.690;2023-12-29T04:57:45;7.00;;;2.33;;
78887;SDS011;68276;49.326;8.690;2023-12-29T05:00:11;7.57;;;2.30;;
78887;SDS011;68276;49.326;8.690;2023-12-29T05:02:36;7.53;;;2.47;;
78887;SDS011;68276;49.326;8.690;2023-12-29T05:05:01;9.17;;;2.20;;
78887;SDS011;68276;49.326;8.690;2023-12-29T05:07:27;6.57;;;2.20;;
78887;SDS011;68276;49.326;8.690;2023-12-29T05:09:52;6.20;;;2.00;;
78887;SDS011;68276;49.326;8.690;2023-12-29T05:12:17;6.25;;;2.33;;
78887;SDS011;68276;49.326;8.690;2023-12-29T05:14:43;8.77;;;2.30;;
78887;SDS011;68276;49.326;8.690;2023-12-29T05:17:08;6.37;;;2.10;;
78887;SDS011;68276;49.326;8.690;2023-12-29T05:19:33;7.30;;;2.10;;
78887;SDS011;68276;49.326;8.690;2023-12-29T05:21:58;6.07;;;1.90;;
78887;SDS011;68276;49.326;8.690;2023-12-29T05:24:24;6.68;;;1.98;;
78887;SDS011;68276;49.326;8.690;2023-12-29T05:26:49;7.93;;;2.00;;
78887;SDS011;68276;49.326;8.690;2023-12-29T05:29:14;7.47;;;2.20;;
78887;SDS011;68276;49.326;8.690;2023-12-29T05:31:40;6.30;;;2.10;;
78887;SDS011;68276;49.326;8.690;2023-12-29T05:34:05;6.97;;;2.23;;
78887;SDS011;68276;49.326;8.690;2023-12-29T05:36:30;8.47;;;2.83;;
78887;SDS011;68276;49.326;8.690;2023-12-29T05:39:01;10.68;;;2.53;;
78887;SDS011;68276;49.326;8.690;2023-12-29T05:41:27;8.98;;;3.17;;
78887;SDS011;68276;49.326;8.690;2023-12-29T05:43:52;6.73;;;2.17;;
78887;SDS011;68276;49.326;8.690;2023-12-29T05:46:18;5.40;;;1.70;;
78887;SDS011;68276;49.326;8.690;2023-12-29T05:48:43;6.53;;;1.97;;
78887;SDS011;68276;49.326;8.690;2023-12-29T05:51:09;6.20;;;2.13;;
78887;SDS011;68276;49.326;8.690;2023-12-29T05:53:34;5.78;;;2.00;;
78887;SDS011;68276;49.326;8.690;2023-12-29T05:55:59;7.07;;;2.40;;
78887;SDS011;68276;49.326;8.690;2023-12-29T05:58:25;6.73;;;2.40;;
78887;SDS011;68276;49.326;8.690;2023-12-29T06:00:52;6.55;;;2.22;;
78887;SDS011;68276;49.326;8.690;2023-12-29T06:03:17;6.57;;;2.00;;
78887;SDS011;68276;49.326;8.690;2023-12-29T06:05:42;6.93;;;2.30;;
78887;SDS011;68276;49.326;8.690;2023-12-29T06:08:08;7.07;;;2.30;;
78887;SDS011;68276;49.326;8.690;2023-12-29T06:10:33;7.40;;;2.60;;
78887;SDS011;68276;49.326;8.690;2023-12-29T06:13:01;6.95;;;2.03;;
78887;SDS011;68276;49.326;8.690;2023-12-29T06:15:26;7.35;;;2.40;;
78887;SDS011;68276;49.326;8.690;2023-12-29T06:17:51;6.47;;;2.20;;
78887;SDS011;68276;49.326;8.690;2023-12-29T06:20:17;7.15;;;2.33;;
78887;SDS011;68276;49.326;8.690;2023-12-29T06:22:43;6.97;;;2.17;;
78887;SDS011;68276;49.326;8.690;2023-12-29T06:25:11;6.90;;;2.10;;
78887;SDS011;68276;49.326;8.690;2023-12-29T06:27:37;6.20;;;1.70;;
78887;SDS011;68276;49.326;8.690;2023-12-29T06:30:04;7.70;;;2.03;;
78887;SDS011;68276;49.326;8.690;2023-12-29T06:32:30;6.22;;;2.38;;
78887;SDS011;68276;49.326;8.690;2023-12-29T06:34:55;7.45;;;2.17;;
78887;SDS011;68276;49.326;8.690;2023-12-29T06:37:21;7.23;;;2.40;;
78887;SDS011;68276;49.326;8.690;2023-12-29T06:39:46;7.50;;;2.20;;
78887;SDS011;68276;49.326;8.690;2023-12-29T06:42:11;5.47;;;2.00;;
78887;SDS011;68276;49.326;8.690;2023-12-29T06:44:37;6.90;;;2.30;;
78887;SDS011;68276;49.326;8.690;2023-12-29T06:47:02;6.93;;;2.20;;
78887;SDS011;68276;49.326;8.690;2023-12-29T06:49:30;6.72;;;2.00;;
78887;SDS011;68276;49.326;8.690;2023-12-29T06:51:55;7.13;;;2.30;;
78887;SDS011;68276;49.326;8.690;2023-12-29T06:54:20;7.00;;;2.30;;
78887;SDS011;68276;49.326;8.690;2023-12-29T06:56:45;7.33;;;1.90;;
78887;SDS011;68276;49.326;8.690;2023-12-29T06:59:11;6.70;;;1.93;;
78887;SDS011;68276;49.326;8.690;2023-12-29T07:01:38;6.53;;;2.20;;
78887;SDS011;68276;49.326;8.690;2023-12-29T07:04:04;6.38;;;2.38;;
78887;SDS011;68276;49.326;8.690;2023-12-29T07:06:29;7.80;;;2.20;;
78887;SDS011;68276;49.326;8.690;2023-12-29T07:08:54;6.23;;;1.80;;
78887;SDS011;68276;49.326;8.690;2023-12-29T07:11:23;8.70;;;2.70;;
78887;SDS011;68276;49.326;8.690;2023-12-29T07:13:48;11.00;;;3.70;;
78887;SDS011;68276;49.326;8.690;2023-12-29T07:16:13;13.57;;;3.33;;
78887;SDS011;68276;49.326;8.690;2023-12-29T07:18:39;11.83;;;3.50;;
78887;SDS011;68276;49.326;8.690;2023-12-29T07:21:04;12.30;;;3.08;;
78887;SDS011;68276;49.326;8.690;2023-12-29T07:23:29;12.73;;;3.43;;
78887;SDS011;68276;49.326;8.690;2023-12-29T07:25:55;16.93;;;4.77;;
78887;SDS011;68276;49.326;8.690;2023-12-29T07:28:20;26.03;;;6.20;;
78887;SDS011;68276;49.326;8.690;2023-12-29T07:30:45;11.83;;;3.77;;
78887;SDS011;68276;49.326;8.690;2023-12-29T07:33:10;8.20;;;2.13;;
78887;SDS011;68276;49.326;8.690;2023-12-29T07:35:35;10.13;;;2.57;;
78887;SDS011;68276;49.326;8.690;2023-12-29T07:38:01;7.90;;;2.27;;
78887;SDS011;68276;49.326;8.690;2023-12-29T07:40:26;7.10;;;2.43;;
78887;SDS011;68276;49.326;8.690;2023-12-29T07:42:51;8.83;;;3.10;;
78887;SDS011;68276;49.326;8.690;2023-12-29T07:45:17;11.20;;;3.93;;
78887;SDS011;68276;49.326;8.690;2023-12-29T07:47:42;12.20;;;4.57;;
78887;SDS011;68276;49.326;8.690;2023-12-29T07:50:08;11.00;;;3.10;;
78887;SDS011;68276;49.326;8.690;2023-12-29T07:52:33;8.20;;;2.53;;
78887;SDS011;68276;49.326;8.690;2023-12-29T07:54:58;7.90;;;2.30;;
78887;SDS011;68276;49.326;8.690;2023-12-29T07:57:24;7.35;;;2.38;;
78887;SDS011;68276;49.326;8.690;2023-12-29T07:59:49;9.70;;;2.73;;
78887;SDS011;68276;49.326;8.690;2023-12-29T08:02:16;7.87;;;2.90;;
78887;SDS011;68276;49.326;8.690;2023-12-29T08:04:41;7.43;;;2.90;;
78887;SDS011;68276;49.326;8.690;2023-12-29T08:07:07;7.37;;;2.50;;
78887;SDS011;68276;49.326;8.690;2023-12-29T08:09:32;6.90;;;2.50;;
78887;SDS011;68276;49.326;8.690;2023-12-29T08:11:57;6.40;;;2.30;;
78887;SDS011;68276;49.326;8.690;2023-12-29T08:14:22;8.20;;;3.00;;
78887;SDS011;68276;49.326;8.690;2023-12-29T08:16:48;7.70;;;2.33;;
78887;SDS011;68276;49.326;8.690;2023-12-29T08:19:13;8.00;;;2.63;;
78887;SDS011;68276;49.326;8.690;2023-12-29T08:21:40;6.60;;;2.05;;
78887;SDS011;68276;49.326;8.690;2023-12-29T08:24:05;7.00;;;2.38;;
78887;SDS011;68276;49.326;8.690;2023-12-29T08:26:31;6.27;;;2.30;;
78887;SDS011;68276;49.326;8.690;2023-12-29T08:28:56;7.20;;;2.27;;
78887;SDS011;68276;49.326;8.690;2023-12-29T08:31:21;7.10;;;2.20;;
78887;SDS011;68276;49.326;8.690;2023-12-29T08:33:51;6.95;;;2.30;;
78887;SDS011;68276;49.326;8.690;2023-12-29T08:36:20;8.33;;;2.33;;
78887;SDS011;68276;49.326;8.690;2023-12-29T08:38:45;13.23;;;3.35;;
78887;SDS011;68276;49.326;8.690;2023-12-29T08:41:13;7.97;;;2.80;;
78887;SDS011;68276;49.326;8.690;2023-12-29T08:43:38;7.80;;;2.35;;
78887;SDS011;68276;49.326;8.690;2023-12-29T08:46:03;7.07;;;2.13;;
78887;SDS011;68276;49.326;8.690;2023-12-29T08:48:29;9.73;;;2.17;;
78887;SDS011;68276;49.326;8.690;2023-12-29T08:50:54;6.60;;;2.33;;
78887;SDS011;68276;49.326;8.690;2023-12-29T08:53:19;6.10;;;2.10;;
78887;SDS011;68276;49.326;8.690;2023-12-29T08:55:46;7.43;;;2.10;;
78887;SDS011;68276;49.326;8.690;2023-12-29T08:58:11;7.15;;;2.40;;
78887;SDS011;68276;49.326;8.690;2023-12-29T09:00:37;7.78;;;2.45;;
78887;SDS011;68276;49.326;8.690;2023-12-29T09:03:02;7.67;;;2.30;;
78887;SDS011;68276;49.326;8.690;2023-12-29T09:05:28;6.00;;;2.05;;
78887;SDS011;68276;49.326;8.690;2023-12-29T09:07:53;6.57;;;1.90;;
78887;SDS011;68276;49.326;8.690;2023-12-29T09:10:18;6.83;;;2.00;;
78887;SDS011;68276;49.326;8.690;2023-12-29T09:12:44;7.53;;;2.20;;
78887;SDS011;68276;49.326;8.690;2023-12-29T09:15:09;7.30;;;2.10;;
78887;SDS011;68276;49.326;8.690;2023-12-29T09:17:34;5.50;;;1.95;;
78887;SDS011;68276;49.326;8.690;2023-12-29T09:20:00;7.43;;;1.90;;
78887;SDS011;68276;49.326;8.690;2023-12-29T09:22:25;8.20;;;2.22;;
78887;SDS011;68276;49.326;8.690;2023-12-29T09:24:51;6.00;;;2.03;;
78887;SDS011;68276;49.326;8.690;2023-12-29T09:27:16;6.00;;;2.00;;
78887;SDS011;68276;49.326;8.690;2023-12-29T09:29:42;9.18;;;2.70;;
78887;SDS011;68276;49.326;8.690;2023-12-29T09:32:07;7.90;;;2.30;;
78887;SDS011;68276;49.326;8.690;2023-12-29T09:34:32;6.43;;;2.10;;
78887;SDS011;68276;49.326;8.690;2023-12-29T09:36:58;4.73;;;1.77;;
78887;SDS011;68276;49.326;8.690;2023-12-29T09:39:23;5.50;;;1.80;;
78887;SDS011;68276;49.326;8.690;2023-12-29T09:41:50;6.37;;;1.87;;
78887;SDS011;68276;49.326;8.690;2023-12-29T09:44:16;6.18;;;1.95;;
78887;SDS011;68276;49.326;8.690;2023-12-29T09:46:44;6.63;;;1.65;;
78887;SDS011;68276;49.326;8.690;2023-12-29T09:49:13;4.60;;;1.50;;
78887;SDS011;68276;49.326;8.690;2023-12-29T09:51:39;3.80;;;1.35;;
78887;SDS011;68276;49.326;8.690;2023-12-29T09:54:05;5.95;;;1.60;;
78887;SDS011;68276;49.326;8.690;2023-12-29T09:56:31;3.58;;;1.25;;
78887;SDS011;68276;49.326;8.690;2023-12-29T09:58:56;4.55;;;1.48;;
78887;SDS011;68276;49.326;8.690;2023-12-29T10:01:22;6.13;;;1.50;;
78887;SDS011;68276;49.326;8.690;2023-12-29T10:03:48;7.82;;;1.25;;
78887;SDS011;68276;49.326;8.690;2023-12-29T10:06:16;6.18;;;1.38;;
78887;SDS011;68276;49.326;8.690;2023-12-29T10:08:45;4.50;;;1.35;;
78887;SDS011;68276;49.326;8.690;2023-12-29T10:11:10;4.93;;;1.30;;
78887;SDS011;68276;49.326;8.690;2023-12-29T10:13:36;4.07;;;1.25;;
78887;SDS011;68276;49.326;8.690;2023-12-29T10:18:32;3.83;;;1.27;;
78887;SDS011;68276;49.326;8.690;2023-12-29T10:21:46;5.10;;;1.25;;
78887;SDS011;68276;49.326;8.690;2023-12-29T10:26:25;4.78;;;1.13;;
78887;SDS011;68276;49.326;8.690;2023-12-29T10:28:51;8.50;;;1.60;;
78887;SDS011;68276;49.326;8.690;2023-12-29T10:31:17;4.57;;;1.30;;
78887;SDS011;68276;49.326;8.690;2023-12-29T10:33:42;3.90;;;1.10;;
78887;SDS011;68276;49.326;8.690;2023-12-29T10:36:07;4.50;;;1.30;;
78887;SDS011;68276;49.326;8.690;2023-12-29T10:38:34;5.93;;;1.42;;
78887;SDS011;68276;49.326;8.690;2023-12-29T10:43:40;5.28;;;1.42;;
78887;SDS011;68276;49.326;8.690;2023-12-29T10:46:09;4.25;;;1.10;;
78887;SDS011;68276;49.326;8.690;2023-12-29T10:48:35;3.65;;;1.20;;
78887;SDS011;68276;49.326;8.690;2023-12-29T10:51:01;4.72;;;1.20;;
78887;SDS011;68276;49.326;8.690;2023-12-29T10:53:29;5.90;;;1.75;;
78887;SDS011;68276;49.326;8.690;2023-12-29T10:55:55;4.22;;;1.23;;
78887;SDS011;68276;49.326;8.690;2023-12-29T10:58:20;3.67;;;1.10;;
78887;SDS011;68276;49.326;8.690;2023-12-29T11:00:45;5.60;;;1.30;;
78887;SDS011;68276;49.326;8.690;2023-12-29T11:03:17;3.65;;;1.33;;
78887;SDS011;68276;49.326;8.690;2023-12-29T11:05:42;5.18;;;1.30;;
78887;SDS011;68276;49.326;8.690;2023-12-29T11:08:20;2.87;;;1.00;;
78887;SDS011;68276;49.326;8.690;2023-12-29T11:10:47;2.70;;;1.02;;
78887;SDS011;68276;49.326;8.690;2023-12-29T11:13:13;3.97;;;1.42;;
78887;SDS011;68276;49.326;8.690;2023-12-29T11:15:44;5.63;;;1.08;;
78887;SDS011;68276;49.326;8.690;2023-12-29T11:18:19;3.83;;;1.13;;
78887;SDS011;68276;49.326;8.690;2023-12-29T11:20:45;2.65;;;0.90;;
78887;SDS011;68276;49.326;8.690;2023-12-29T11:23:11;3.75;;;1.15;;
78887;SDS011;68276;49.326;8.690;2023-12-29T11:25:40;3.72;;;0.90;;
78887;SDS011;68276;49.326;8.690;2023-12-29T11:28:06;3.13;;;0.95;;
78887;SDS011;68276;49.326;8.690;2023-12-29T11:30:33;5.07;;;1.25;;
78887;SDS011;68276;49.326;8.690;2023-12-29T11:33:03;2.73;;;0.90;;
78887;SDS011;68276;49.326;8.690;2023-12-29T11:35:50;2.67;;;0.75;;
78887;SDS011;68276;49.326;8.690;2023-12-29T11:38:41;2.63;;;0.75;;
78887;SDS011;68276;49.326;8.690;2023-12-29T11:41:12;4.88;;;1.20;;
78887;SDS011;68276;49.326;8.690;2023-12-29T11:43:39;3.00;;;0.80;;
78887;SDS011;68276;49.326;8.690;2023-12-29T11:46:04;2.30;;;0.82;;
78887;SDS011;68276;49.326;8.690;2023-12-29T11:51:29;3.38;;;1.00;;
78887;SDS011;68276;49.326;8.690;2023-12-29T11:53:55;3.60;;;1.00;;
78887;SDS011;68276;49.326;8.690;2023-12-29T11:56:20;3.40;;;0.88;;
78887;SDS011;68276;49.326;8.690;2023-12-29T11:58:46;3.83;;;1.07;;
78887;SDS011;68276;49.326;8.690;2023-12-29T12:01:11;2.37;;;0.80;;
78887;SDS011;68276;49.326;8.690;2023-12-29T12:03:36;2.92;;;0.88;;
78887;SDS011;68276;49.326;8.690;2023-12-29T12:06:02;2.27;;;0.73;;
78887;SDS011;68276;49.326;8.690;2023-12-29T12:08:31;2.40;;;0.80;;
78887;SDS011;68276;49.326;8.690;2023-12-29T12:10:57;1.90;;;0.68;;
78887;SDS011;68276;49.326;8.690;2023-12-29T12:16:06;3.45;;;1.00;;
78887;SDS011;68276;49.326;8.690;2023-12-29T12:18:32;3.27;;;1.10;;
78887;SDS011;68276;49.326;8.690;2023-12-29T12:20:57;2.73;;;0.90;;
78887;SDS011;68276;49.326;8.690;2023-12-29T12:23:24;4.75;;;1.02;;
78887;SDS011;68276;49.326;8.690;2023-12-29T12:28:16;1.70;;;0.77;;
78887;SDS011;68276;49.326;8.690;2023-12-29T12:30:41;4.35;;;1.10;;
78887;SDS011;68276;49.326;8.690;2023-12-29T12:33:08;1.83;;;0.60;;
78887;SDS011;68276;49.326;8.690;2023-12-29T12:35:36;1.92;;;0.73;;
78887;SDS011;68276;49.326;8.690;2023-12-29T12:38:14;2.57;;;0.80;;
78887;SDS011;68276;49.326;8.690;2023-12-29T12:40:41;2.63;;;0.77;;
78887;SDS011;68276;49.326;8.690;2023-12-29T12:43:07;2.03;;;0.77;;
78887;SDS011;68276;49.326;8.690;2023-12-29T12:45:33;1.75;;;0.80;;
78887;SDS011;68276;49.326;8.690;2023-12-29T12:48:00;2.83;;;0.93;;
78887;SDS011;68276;49.326;8.690;2023-12-29T12:50:26;2.28;;;0.80;;
78887;SDS011;68276;49.326;8.690;2023-12-29T12:52:52;2.00;;;0.70;;
78887;SDS011;68276;49.326;8.690;2023-12-29T12:55:17;1.50;;;0.63;;
78887;SDS011;68276;49.326;8.690;2023-12-29T12:57:43;2.13;;;0.77;;
78887;SDS011;68276;49.326;8.690;2023-12-29T13:00:09;2.90;;;1.00;;
78887;SDS011;68276;49.326;8.690;2023-12-29T13:02:34;3.00;;;0.98;;
78887;SDS011;68276;49.326;8.690;2023-12-29T13:05:00;2.50;;;0.85;;
78887;SDS011;68276;49.326;8.690;2023-12-29T13:07:30;3.17;;;0.90;;
78887;SDS011;68276;49.326;8.690;2023-12-29T13:09:55;4.00;;;1.00;;
78887;SDS011;68276;49.326;8.690;2023-12-29T13:12:21;2.65;;;1.02;;
78887;SDS011;68276;49.326;8.690;2023-12-29T13:14:47;3.13;;;1.13;;
78887;SDS011;68276;49.326;8.690;2023-12-29T13:17:14;3.33;;;1.05;;
78887;SDS011;68276;49.326;8.690;2023-12-29T13:19:40;3.58;;;1.00;;
78887;SDS011;68276;49.326;8.690;2023-12-29T13:22:12;2.80;;;1.00;;
78887;SDS011;68276;49.326;8.690;2023-12-29T13:24:46;6.20;;;1.10;;
78887;SDS011;68276;49.326;8.690;2023-12-29T13:27:11;5.57;;;1.30;;
78887;SDS011;68276;49.326;8.690;2023-12-29T13:29:37;2.42;;;0.90;;
78887;SDS011;68276;49.326;8.690;2023-12-29T13:32:10;5.47;;;1.23;;
78887;SDS011;68276;49.326;8.690;2023-12-29T13:37:24;4.18;;;1.00;;
78887;SDS011;68276;49.326;8.690;2023-12-29T13:42:16;2.67;;;0.97;;
78887;SDS011;68276;49.326;8.690;2023-12-29T13:44:42;3.10;;;1.02;;
78887;SDS011;68276;49.326;8.690;2023-12-29T13:47:08;4.65;;;1.00;;
78887;SDS011;68276;49.326;8.690;2023-12-29T13:49:34;3.85;;;1.13;;
78887;SDS011;68276;49.326;8.690;2023-12-29T13:52:02;3.30;;;1.08;;
78887;SDS011;68276;49.326;8.690;2023-12-29T13:54:27;3.15;;;0.90;;
78887;SDS011;68276;49.326;8.690;2023-12-29T13:56:52;2.93;;;0.97;;
78887;SDS011;68276;49.326;8.690;2023-12-29T13:59:33;3.53;;;1.10;;
78887;SDS011;68276;49.326;8.690;2023-12-29T14:01:58;2.17;;;0.90;;
78887;SDS011;68276;49.326;8.690;2023-12-29T14:04:24;4.45;;;1.20;;
78887;SDS011;68276;49.326;8.690;2023-12-29T14:09:18;4.32;;;1.00;;
78887;SDS011;68276;49.326;8.690;2023-12-29T14:11:45;3.85;;;0.90;;
78887;SDS011;68276;49.326;8.690;2023-12-29T14:14:10;2.85;;;0.93;;
78887;SDS011;68276;49.326;8.690;2023-12-29T14:16:41;2.03;;;0.93;;
78887;SDS011;68276;49.326;8.690;2023-12-29T14:19:07;3.40;;;1.00;;
78887;SDS011;68276;49.326;8.690;2023-12-29T14:21:33;2.95;;;0.88;;
78887;SDS011;68276;49.326;8.690;2023-12-29T14:24:14;2.63;;;1.10;;
78887;SDS011;68276;49.326;8.690;2023-12-29T14:26:41;4.13;;;1.10;;
78887;SDS011;68276;49.326;8.690;2023-12-29T14:29:10;2.88;;;1.15;;
78887;SDS011;68276;49.326;8.690;2023-12-29T14:31:36;3.75;;;1.10;;
78887;SDS011;68276;49.326;8.690;2023-12-29T14:34:02;5.72;;;1.30;;
78887;SDS011;68276;49.326;8.690;2023-12-29T14:36:27;3.72;;;1.30;;
78887;SDS011;68276;49.326;8.690;2023-12-29T14:38:53;2.97;;;0.80;;
78887;SDS011;68276;49.326;8.690;2023-12-29T14:41:18;4.20;;;1.00;;
78887;SDS011;68276;49.326;8.690;2023-12-29T14:43:43;3.23;;;0.90;;
78887;SDS011;68276;49.326;8.690;2023-12-29T14:46:08;3.80;;;1.20;;
78887;SDS011;68276;49.326;8.690;2023-12-29T14:48:34;3.60;;;0.83;;
78887;SDS011;68276;49.326;8.690;2023-12-29T14:50:59;2.90;;;1.07;;
78887;SDS011;68276;49.326;8.690;2023-12-29T14:53:24;4.73;;;1.10;;
78887;SDS011;68276;49.326;8.690;2023-12-29T14:55:50;5.57;;;1.25;;
78887;SDS011;68276;49.326;8.690;2023-12-29T14:58:15;4.17;;;0.97;;
78887;SDS011;68276;49.326;8.690;2023-12-29T15:00:43;4.67;;;1.10;;
78887;SDS011;68276;49.326;8.690;2023-12-29T15:03:11;9.88;;;1.20;;
78887;SDS011;68276;49.326;8.690;2023-12-29T15:05:37;2.92;;;0.98;;
78887;SDS011;68276;49.326;8.690;2023-12-29T15:08:02;3.20;;;0.90;;
78887;SDS011;68276;49.326;8.690;2023-12-29T15:12:54;3.92;;;1.17;;
78887;SDS011;68276;49.326;8.690;2023-12-29T15:15:19;4.50;;;1.08;;